createdAt,value
2022-10-09T00:00:54.715Z,279
2022-10-09T00:02:59.858Z,280
2022-10-09T00:05:05.496Z,280
2022-10-09T00:07:10.885Z,279
2022-10-09T00:09:16.045Z,279
2022-10-09T00:11:21.070Z,279
2022-10-09T00:13:26.655Z,279
2022-10-09T00:15:32.492Z,279
2022-10-09T00:17:37.924Z,279
2022-10-09T00:19:43.144Z,279
2022-10-09T00:21:49.105Z,279
2022-10-09T00:23:54.627Z,279
2022-10-09T00:25:59.813Z,278
2022-10-09T00:28:05.263Z,278
2022-10-09T00:30:10.490Z,278
2022-10-09T00:32:15.766Z,278
2022-10-09T00:34:21.085Z,278
2022-10-09T00:36:26.515Z,278
2022-10-09T00:38:32.075Z,278
2022-10-09T00:40:37.670Z,274
2022-10-09T00:42:42.644Z,274
2022-10-09T00:44:48.381Z,281
2022-10-09T00:46:54.326Z,281
2022-10-09T00:48:59.929Z,281
2022-10-09T00:51:05.370Z,282
2022-10-09T00:53:10.660Z,281
2022-10-09T00:55:18.852Z,281
2022-10-09T00:57:24.540Z,281
2022-10-09T00:59:29.699Z,281
2022-10-09T01:01:34.991Z,280
2022-10-09T01:03:40.291Z,281
2022-10-09T01:05:45.773Z,280
2022-10-09T01:07:50.777Z,280
2022-10-09T01:09:55.993Z,277
2022-10-09T01:12:01.258Z,273
2022-10-09T01:14:06.692Z,276
2022-10-09T01:16:12.120Z,276
2022-10-09T01:18:17.612Z,273
2022-10-09T01:20:22.422Z,276
2022-10-09T01:22:27.428Z,274
2022-10-09T01:24:33.304Z,270
2022-10-09T01:26:38.426Z,273
2022-10-09T01:28:43.777Z,272
2022-10-09T01:30:49.358Z,276
2022-10-09T01:32:54.585Z,274
2022-10-09T01:34:59.821Z,273
2022-10-09T01:37:04.957Z,272
2022-10-09T01:39:11.468Z,273
2022-10-09T01:41:16.607Z,274
2022-10-09T01:43:21.652Z,276
2022-10-09T01:45:28.117Z,276
2022-10-09T01:47:33.301Z,277
2022-10-09T01:49:38.427Z,277
2022-10-09T01:51:43.427Z,277
2022-10-09T01:53:48.717Z,278
2022-10-09T01:55:54.051Z,278
2022-10-09T01:57:59.005Z,277
2022-10-09T02:00:04.423Z,279
2022-10-09T02:02:10.056Z,278
2022-10-09T02:04:20.044Z,278
2022-10-09T02:06:25.246Z,278
2022-10-09T02:08:30.487Z,278
2022-10-09T02:10:35.687Z,278
2022-10-09T02:12:40.753Z,278
2022-10-09T02:14:46.011Z,278
2022-10-09T02:16:51.390Z,278
2022-10-09T02:18:56.789Z,278
2022-10-09T02:21:03.012Z,278
2022-10-09T02:23:08.496Z,278
2022-10-09T02:25:13.730Z,278
2022-10-09T02:27:19.222Z,278
2022-10-09T02:29:24.667Z,278
2022-10-09T02:31:30.998Z,278
2022-10-09T02:33:36.507Z,278
2022-10-09T02:35:41.730Z,278
2022-10-09T02:37:47.462Z,278
2022-10-09T02:39:52.809Z,278
2022-10-09T02:41:58.227Z,272
2022-10-09T02:44:03.838Z,276
2022-10-09T02:46:09.347Z,277
2022-10-09T02:48:14.848Z,277
2022-10-09T02:50:19.747Z,277
2022-10-09T02:52:24.743Z,277
2022-10-09T02:54:33.111Z,277
2022-10-09T02:56:41.465Z,277
2022-10-09T02:58:46.749Z,277
2022-10-09T03:00:52.026Z,273
2022-10-09T03:02:57.210Z,273
2022-10-09T03:05:02.618Z,272
2022-10-09T03:07:08.080Z,271
2022-10-09T03:09:13.559Z,273
2022-10-09T03:11:19.113Z,273
2022-10-09T03:13:24.433Z,276
2022-10-09T03:15:29.674Z,276
2022-10-09T03:17:35.100Z,272
2022-10-09T03:19:40.271Z,273
2022-10-09T03:21:45.383Z,276
2022-10-09T03:23:51.076Z,268
2022-10-09T03:25:56.321Z,270
2022-10-09T03:28:01.571Z,265
2022-10-09T03:30:06.558Z,265
2022-10-09T03:32:12.126Z,266
2022-10-09T03:34:18.357Z,272
2022-10-09T03:36:23.806Z,267
2022-10-09T03:38:28.879Z,272
2022-10-09T03:40:34.075Z,271
2022-10-09T03:42:39.192Z,267
2022-10-09T03:44:44.927Z,262
2022-10-09T03:46:50.505Z,277
2022-10-09T03:48:55.854Z,271
2022-10-09T03:51:01.677Z,273
2022-10-09T03:53:07.215Z,273
2022-10-09T03:55:12.693Z,273
2022-10-09T03:57:17.840Z,274
2022-10-09T03:59:23.096Z,273
2022-10-09T04:01:28.563Z,276
2022-10-09T04:03:34.579Z,279
2022-10-09T04:05:39.984Z,279
2022-10-09T04:07:45.967Z,279
2022-10-09T04:09:51.681Z,279
2022-10-09T04:11:56.757Z,279
2022-10-09T04:14:01.795Z,279
2022-10-09T04:16:07.451Z,278
2022-10-09T04:18:13.042Z,278
2022-10-09T04:20:18.087Z,278
2022-10-09T04:22:23.642Z,277
2022-10-09T04:24:32.101Z,277
2022-10-09T04:26:37.435Z,277
2022-10-09T04:28:43.032Z,276
2022-10-09T04:30:48.477Z,276
2022-10-09T04:32:54.281Z,276
2022-10-09T04:34:59.423Z,277
2022-10-09T04:37:04.701Z,277
2022-10-09T04:39:09.848Z,277
2022-10-09T04:41:14.973Z,277
2022-10-09T04:43:20.212Z,277
2022-10-09T04:45:25.576Z,277
2022-10-09T04:47:31.012Z,277
2022-10-09T04:49:36.020Z,277
2022-10-09T04:51:41.586Z,277
2022-10-09T04:53:47.080Z,277
2022-10-09T04:55:52.344Z,277
2022-10-09T04:57:57.569Z,277
2022-10-09T05:00:03.099Z,277
2022-10-09T05:02:09.535Z,277
2022-10-09T05:04:15.873Z,277
2022-10-09T05:06:21.455Z,277
2022-10-09T05:08:27.096Z,277
2022-10-09T05:10:34.624Z,277
2022-10-09T05:12:41.164Z,277
2022-10-09T05:14:47.500Z,277
2022-10-09T05:17:19.633Z,277
2022-10-09T05:19:28.966Z,277
2022-10-09T05:21:34.440Z,277
2022-10-09T05:23:40.532Z,277
2022-10-09T05:25:46.661Z,273
2022-10-09T05:27:53.454Z,274
2022-10-09T05:30:00.085Z,268
2022-10-09T05:32:06.131Z,272
2022-10-09T05:34:11.780Z,274
2022-10-09T05:36:17.194Z,268
2022-10-09T05:38:23.127Z,276
2022-10-09T05:40:32.000Z,276
2022-10-09T05:42:38.199Z,276
2022-10-09T05:44:44.542Z,276
2022-10-09T05:46:50.028Z,274
2022-10-09T05:48:55.284Z,274
2022-10-09T05:51:01.386Z,274
2022-10-09T05:53:07.769Z,274
2022-10-09T05:55:17.122Z,276
2022-10-09T05:57:22.772Z,276
2022-10-09T05:59:28.539Z,276
2022-10-09T06:01:34.207Z,274
2022-10-09T06:03:40.564Z,274
2022-10-09T06:05:46.297Z,274
2022-10-09T06:07:51.948Z,274
2022-10-09T06:09:57.920Z,274
2022-10-09T06:12:03.644Z,274
2022-10-09T06:14:09.898Z,274
2022-10-09T06:16:16.105Z,274
2022-10-09T06:18:22.806Z,274
2022-10-09T06:20:29.087Z,274
2022-10-09T06:22:35.607Z,274
2022-10-09T06:24:41.859Z,274
2022-10-09T06:26:49.073Z,274
2022-10-09T06:28:55.882Z,274
2022-10-09T06:31:05.838Z,274
2022-10-09T06:33:12.540Z,273
2022-10-09T06:35:18.555Z,272
2022-10-09T06:37:25.324Z,270
2022-10-09T06:39:31.561Z,270
2022-10-09T06:41:38.522Z,270
2022-10-09T06:43:45.304Z,268
2022-10-09T06:45:51.752Z,268
2022-10-09T06:47:58.014Z,268
2022-10-09T06:50:05.265Z,269
2022-10-09T06:52:11.658Z,268
2022-10-09T06:54:17.738Z,272
2022-10-09T06:56:24.660Z,271
2022-10-09T06:58:31.034Z,271
2022-10-09T07:00:37.322Z,272
2022-10-09T07:02:48.154Z,273
2022-10-09T07:04:55.417Z,273
2022-10-09T07:07:01.949Z,274
2022-10-09T07:09:08.030Z,274
2022-10-09T07:11:14.163Z,278
2022-10-09T07:13:20.474Z,280
2022-10-09T07:15:26.968Z,280
2022-10-09T07:17:34.092Z,280
2022-10-09T07:19:41.650Z,280
2022-10-09T07:21:48.385Z,280
2022-10-09T07:23:55.130Z,280
2022-10-09T07:26:01.488Z,279
2022-10-09T07:28:07.776Z,279
2022-10-09T07:30:13.902Z,278
2022-10-09T07:32:20.404Z,279
2022-10-09T07:34:27.274Z,281
2022-10-09T07:36:33.713Z,280
2022-10-09T07:38:40.190Z,283
2022-10-09T07:40:47.026Z,283
2022-10-09T07:42:54.971Z,283
2022-10-09T07:45:01.185Z,283
2022-10-09T07:47:07.671Z,283
2022-10-09T07:49:14.724Z,283
2022-10-09T07:51:20.966Z,283
2022-10-09T07:53:26.998Z,283
2022-10-09T07:55:36.244Z,283
2022-10-09T07:57:43.200Z,283
2022-10-09T07:59:49.326Z,283
2022-10-09T08:01:56.054Z,283
2022-10-09T08:04:02.490Z,283
2022-10-09T08:06:10.246Z,283
2022-10-09T08:08:18.010Z,283
2022-10-09T08:10:24.824Z,283
2022-10-09T08:12:31.886Z,283
2022-10-09T08:14:41.456Z,283
2022-10-09T08:16:49.124Z,283
2022-10-09T08:18:55.314Z,283
2022-10-09T08:21:01.676Z,283
2022-10-09T08:23:08.126Z,283
2022-10-09T08:25:14.550Z,283
2022-10-09T08:27:21.269Z,283
2022-10-09T08:29:27.711Z,284
2022-10-09T08:31:34.385Z,284
2022-10-09T08:33:41.391Z,284
2022-10-09T08:35:48.238Z,284
2022-10-09T08:37:55.583Z,283
2022-10-09T08:40:02.250Z,284
2022-10-09T08:42:09.214Z,284
2022-10-09T08:44:15.576Z,284
2022-10-09T08:46:24.266Z,284
2022-10-09T08:48:31.054Z,284
2022-10-09T08:50:38.068Z,284
2022-10-09T08:52:50.238Z,284
2022-10-09T08:54:57.421Z,284
2022-10-09T08:57:04.213Z,284
2022-10-09T08:59:10.962Z,284
2022-10-09T09:01:17.826Z,284
2022-10-09T09:03:24.925Z,284
2022-10-09T09:05:32.003Z,284
2022-10-09T09:07:38.446Z,284
2022-10-09T09:09:44.676Z,284
2022-10-09T09:11:53.785Z,284
2022-10-09T09:14:00.733Z,284
2022-10-09T09:16:07.550Z,284
2022-10-09T09:18:16.231Z,284
2022-10-09T09:20:22.652Z,284
2022-10-09T09:22:29.203Z,284
2022-10-09T09:24:35.757Z,284
2022-10-09T09:26:42.182Z,284
2022-10-09T09:28:49.029Z,284
2022-10-09T09:30:56.223Z,284
2022-10-09T09:33:02.556Z,283
2022-10-09T09:35:09.192Z,284
2022-10-09T09:37:17.110Z,284
2022-10-09T09:40:48.334Z,284
2022-10-09T09:42:55.668Z,284
2022-10-09T09:45:06.775Z,283
2022-10-09T09:47:13.384Z,283
2022-10-09T09:49:19.922Z,279
2022-10-09T09:51:32.403Z,281
2022-10-09T09:53:39.392Z,281
2022-10-09T09:55:45.891Z,281
2022-10-09T09:57:54.069Z,281
2022-10-09T10:00:00.654Z,280
2022-10-09T10:02:09.035Z,281
2022-10-09T10:04:16.267Z,281
2022-10-09T10:06:24.756Z,281
2022-10-09T10:08:35.246Z,281
2022-10-09T10:10:45.575Z,281
2022-10-09T10:12:54.243Z,279
2022-10-09T10:15:04.451Z,279
2022-10-09T10:17:18.160Z,280
2022-10-09T10:19:26.342Z,281
2022-10-09T10:21:33.605Z,279
2022-10-09T10:23:43.162Z,279
2022-10-09T10:25:50.208Z,281
2022-10-09T10:28:03.348Z,280
2022-10-09T10:30:10.644Z,280
2022-10-09T10:32:18.788Z,280
2022-10-09T10:34:25.471Z,279
2022-10-09T10:36:33.262Z,279
2022-10-09T10:38:40.898Z,279
2022-10-09T10:40:47.498Z,279
2022-10-09T10:43:00.787Z,279
2022-10-09T10:45:06.902Z,279
2022-10-09T10:47:13.192Z,279
2022-10-09T10:49:19.255Z,280
2022-10-09T10:51:26.534Z,280
2022-10-09T10:53:33.661Z,280
2022-10-09T10:55:40.433Z,280
2022-10-09T10:57:47.681Z,280
2022-10-09T10:59:56.332Z,280
2022-10-09T11:02:02.526Z,280
2022-10-09T11:04:11.382Z,280
2022-10-09T11:06:19.484Z,281
2022-10-09T11:08:26.183Z,280
2022-10-09T11:10:36.263Z,280
2022-10-09T11:12:51.946Z,280
2022-10-09T11:14:58.402Z,281
2022-10-09T11:17:06.525Z,281
2022-10-09T11:19:15.594Z,281
2022-10-09T11:21:23.057Z,281
2022-10-09T11:23:32.437Z,280
2022-10-09T11:25:40.024Z,278
2022-10-09T11:27:48.303Z,276
2022-10-09T11:29:55.861Z,273
2022-10-09T11:32:05.342Z,273
2022-10-09T11:34:12.604Z,294
2022-10-09T11:36:19.328Z,294
2022-10-09T11:38:42.288Z,294
2022-10-09T11:40:51.558Z,294
2022-10-09T11:42:58.964Z,294
2022-10-09T11:45:05.353Z,294
2022-10-09T11:47:13.080Z,294
2022-10-09T11:49:19.357Z,294
2022-10-09T11:51:25.643Z,294
2022-10-09T11:53:36.750Z,294
2022-10-09T11:55:43.325Z,294
2022-10-09T11:57:50.890Z,294
2022-10-09T11:59:58.641Z,294
2022-10-09T12:02:05.955Z,294
2022-10-09T12:04:14.065Z,294
2022-10-09T12:06:25.585Z,294
2022-10-09T12:08:32.768Z,294
2022-10-09T12:10:39.789Z,294
2022-10-09T12:12:47.241Z,294
2022-10-09T12:14:56.185Z,294
2022-10-09T12:17:04.041Z,294
2022-10-09T12:19:11.009Z,294
2022-10-09T12:21:19.127Z,294
2022-10-09T12:23:31.268Z,294
2022-10-09T12:25:38.649Z,294
2022-10-09T12:27:46.535Z,294
2022-10-09T12:29:54.642Z,294
2022-10-09T12:32:02.565Z,294
2022-10-09T12:34:09.267Z,294
2022-10-09T12:36:17.216Z,294
2022-10-09T12:38:23.642Z,294
2022-10-09T12:40:31.084Z,294
2022-10-09T12:42:38.983Z,294
2022-10-09T12:44:46.972Z,294
2022-10-09T12:46:53.915Z,294
2022-10-09T12:49:01.083Z,294
2022-10-09T12:51:08.306Z,294
2022-10-09T12:53:14.586Z,294
2022-10-09T12:55:21.675Z,294
2022-10-09T12:57:30.712Z,294
2022-10-09T12:59:38.496Z,294
2022-10-09T13:01:46.295Z,294
2022-10-09T13:03:55.182Z,294
2022-10-09T13:06:01.790Z,294
2022-10-09T13:08:08.556Z,294
2022-10-09T13:10:16.032Z,294
2022-10-09T13:12:24.190Z,294
2022-10-09T13:14:31.556Z,294
2022-10-09T13:16:40.453Z,293
2022-10-09T13:18:47.848Z,293
2022-10-09T13:20:54.305Z,293
2022-10-09T13:23:00.872Z,292
2022-10-09T13:25:07.338Z,293
2022-10-09T13:27:14.677Z,292
2022-10-09T13:29:21.852Z,292
2022-10-09T13:31:29.554Z,293
2022-10-09T13:33:39.740Z,291
2022-10-09T13:35:47.361Z,291
2022-10-09T13:37:55.860Z,291
2022-10-09T13:40:03.576Z,291
2022-10-09T13:42:12.235Z,291
2022-10-09T13:44:18.783Z,291
2022-10-09T13:46:27.000Z,291
2022-10-09T13:48:34.120Z,292
2022-10-09T13:50:43.662Z,292
2022-10-09T13:52:53.348Z,291
2022-10-09T13:55:00.786Z,292
2022-10-09T13:57:07.575Z,292
2022-10-09T13:59:14.029Z,292
2022-10-09T14:01:21.415Z,291
2022-10-09T14:03:29.034Z,292
2022-10-09T14:05:36.730Z,292
2022-10-09T14:07:43.209Z,292
2022-10-09T14:09:50.860Z,292
2022-10-09T14:11:57.330Z,292
2022-10-09T14:14:05.659Z,292
2022-10-09T14:16:12.356Z,292
2022-10-09T14:18:18.535Z,292
2022-10-09T14:20:26.466Z,292
2022-10-09T14:22:33.057Z,292
2022-10-09T14:24:40.483Z,292
2022-10-09T14:26:54.485Z,291
2022-10-09T14:29:01.623Z,289
2022-10-09T14:31:08.403Z,288
2022-10-09T14:33:15.340Z,283
2022-10-09T14:35:24.572Z,294
2022-10-09T14:37:44.473Z,294
2022-10-09T14:39:51.503Z,296
2022-10-09T14:41:58.071Z,296
2022-10-09T14:44:04.802Z,296
2022-10-09T14:46:11.964Z,296
2022-10-09T14:48:18.675Z,296
2022-10-09T14:50:25.269Z,296
2022-10-09T14:52:31.822Z,296
2022-10-09T14:54:38.905Z,296
2022-10-09T14:56:46.971Z,296
2022-10-09T14:58:53.998Z,296
2022-10-09T15:01:00.182Z,296
2022-10-09T15:03:07.605Z,294
2022-10-09T15:05:14.470Z,295
2022-10-09T15:07:21.120Z,295
2022-10-09T15:09:27.937Z,294
2022-10-09T15:11:34.395Z,294
2022-10-09T15:13:41.795Z,294
2022-10-09T15:15:52.050Z,294
2022-10-09T15:17:59.353Z,294
2022-10-09T15:20:06.087Z,293
2022-10-09T15:22:12.796Z,294
2022-10-09T15:24:21.227Z,294
2022-10-09T15:26:28.129Z,294
2022-10-09T15:28:34.858Z,294
2022-10-09T15:30:41.605Z,294
2022-10-09T15:32:47.821Z,294
2022-10-09T15:34:55.902Z,294
2022-10-09T15:37:02.157Z,294
2022-10-09T15:39:10.593Z,294
2022-10-09T15:41:18.070Z,294
2022-10-09T15:43:24.406Z,294
2022-10-09T15:45:44.978Z,294
2022-10-09T15:47:54.410Z,294
2022-10-09T15:50:01.269Z,294
2022-10-09T15:52:07.890Z,293
2022-10-09T15:54:15.520Z,294
2022-10-09T15:56:22.512Z,294
2022-10-09T15:58:33.343Z,294
2022-10-09T16:00:40.218Z,294
2022-10-09T16:02:47.731Z,293
2022-10-09T16:04:55.992Z,280
2022-10-09T16:07:02.415Z,283
2022-10-09T16:09:10.138Z,288
2022-10-09T16:11:17.095Z,286
2022-10-09T16:13:33.908Z,284
2022-10-09T16:15:40.181Z,289
2022-10-09T16:17:46.441Z,282
2022-10-09T16:19:54.135Z,282
2022-10-09T16:22:00.461Z,283
2022-10-09T16:24:07.865Z,283
2022-10-09T16:26:14.126Z,283
2022-10-09T16:28:21.266Z,283
2022-10-09T16:30:27.573Z,283
2022-10-09T16:32:34.834Z,283
2022-10-09T16:34:42.872Z,283
2022-10-09T16:36:49.151Z,283
2022-10-09T16:38:56.915Z,283
2022-10-09T16:41:05.447Z,283
2022-10-09T16:43:13.550Z,283
2022-10-09T16:45:19.925Z,283
2022-10-09T16:47:26.477Z,283
2022-10-09T16:49:33.974Z,283
2022-10-09T16:51:41.810Z,283
2022-10-09T16:53:47.925Z,283
2022-10-09T16:55:54.419Z,283
2022-10-09T16:58:02.156Z,283
2022-10-09T17:00:09.418Z,283
2022-10-09T17:02:16.724Z,283
2022-10-09T17:04:27.986Z,283
2022-10-09T17:06:35.780Z,283
2022-10-09T17:08:42.722Z,283
2022-10-09T17:10:49.108Z,283
2022-10-09T17:12:58.697Z,283
2022-10-09T17:15:05.854Z,283
2022-10-09T17:17:16.652Z,283
2022-10-09T17:19:24.837Z,283
2022-10-09T17:21:37.707Z,283
2022-10-09T17:23:48.032Z,283
2022-10-09T17:25:56.829Z,283
2022-10-09T17:28:12.398Z,283
2022-10-09T17:30:22.903Z,283
2022-10-09T17:32:33.828Z,283
2022-10-09T17:34:46.414Z,283
2022-10-09T17:36:54.456Z,283
2022-10-09T17:39:02.298Z,283
2022-10-09T17:41:11.126Z,279
2022-10-09T17:43:25.116Z,276
2022-10-09T17:45:41.162Z,273
2022-10-09T17:47:50.021Z,274
2022-10-09T17:49:58.542Z,274
2022-10-09T17:52:05.884Z,274
2022-10-09T17:54:15.883Z,274
2022-10-09T17:56:25.553Z,274
2022-10-09T17:58:33.084Z,273
2022-10-09T18:00:41.271Z,274
2022-10-09T18:02:50.898Z,273
2022-10-09T18:04:59.121Z,273
2022-10-09T18:07:07.092Z,274
2022-10-09T18:09:16.927Z,274
2022-10-09T18:11:23.878Z,273
2022-10-09T18:13:32.209Z,260
2022-10-09T18:15:42.510Z,265
2022-10-09T18:17:56.260Z,265
2022-10-09T18:20:04.005Z,265
2022-10-09T18:22:16.990Z,265
2022-10-09T18:24:26.770Z,265
2022-10-09T18:26:34.235Z,293
2022-10-09T18:28:47.472Z,293
2022-10-09T18:30:57.137Z,293
2022-10-09T18:33:06.815Z,296
2022-10-09T18:35:14.163Z,296
2022-10-09T18:37:26.730Z,296
2022-10-09T18:39:37.710Z,296
2022-10-09T18:41:47.351Z,296
2022-10-09T18:43:56.526Z,296
2022-10-09T18:46:06.010Z,296
2022-10-09T18:48:15.966Z,296
2022-10-09T18:50:25.422Z,296
2022-10-09T18:52:33.661Z,296
2022-10-09T18:54:51.004Z,296
2022-10-09T18:56:58.725Z,296
2022-10-09T18:59:09.822Z,296
2022-10-09T19:01:18.889Z,296
2022-10-09T19:03:28.678Z,296
2022-10-09T19:05:37.500Z,296
2022-10-09T19:07:45.086Z,296
2022-10-09T19:10:06.524Z,296
2022-10-09T19:12:15.289Z,296
2022-10-09T19:14:23.364Z,296
2022-10-09T19:16:30.288Z,296
2022-10-09T19:18:38.065Z,296
2022-10-09T19:20:45.598Z,296
2022-10-09T19:22:54.897Z,296
2022-10-09T19:25:01.608Z,296
2022-10-09T19:27:08.953Z,296
2022-10-09T19:29:15.497Z,296
2022-10-09T19:31:25.460Z,296
2022-10-09T19:33:34.913Z,296
2022-10-09T19:35:41.376Z,296
2022-10-09T19:37:53.078Z,296
2022-10-09T19:39:59.897Z,296
2022-10-09T19:42:06.889Z,296
2022-10-09T19:44:14.246Z,296
2022-10-09T19:46:24.719Z,296
2022-10-09T19:48:34.494Z,296
2022-10-09T19:50:41.009Z,296
2022-10-09T19:52:50.056Z,294
2022-10-09T19:55:14.910Z,295
2022-10-09T19:57:22.638Z,295
2022-10-09T19:59:32.672Z,295
2022-10-09T20:01:41.185Z,295
2022-10-09T20:03:48.128Z,295
2022-10-09T20:05:54.569Z,295
2022-10-09T20:08:02.787Z,295
2022-10-09T20:10:09.486Z,296
2022-10-09T20:12:15.875Z,295
2022-10-09T20:14:23.835Z,296
2022-10-09T20:16:45.280Z,295
2022-10-09T20:18:52.511Z,296
2022-10-09T20:20:58.836Z,295
2022-10-09T20:23:04.976Z,295
2022-10-09T20:25:11.383Z,296
2022-10-09T20:27:17.569Z,296
2022-10-09T20:29:24.105Z,295
2022-10-09T20:31:30.405Z,295
2022-10-09T20:33:36.603Z,296
2022-10-09T20:35:44.369Z,295
2022-10-09T20:37:50.825Z,295
2022-10-09T20:39:57.147Z,295
2022-10-09T20:42:04.566Z,295
2022-10-09T20:44:10.887Z,295
2022-10-09T20:46:16.867Z,294
2022-10-09T20:48:23.036Z,292
2022-10-09T20:50:30.841Z,295
2022-10-09T20:52:37.370Z,293
2022-10-09T20:54:45.913Z,293
2022-10-09T20:56:54.745Z,293
2022-10-09T20:59:02.984Z,294
2022-10-09T21:01:10.534Z,294
2022-10-09T21:03:17.136Z,294
2022-10-09T21:05:23.595Z,294
2022-10-09T21:07:31.450Z,292
2022-10-09T21:09:37.815Z,288
2022-10-09T21:11:45.779Z,288
2022-10-09T21:13:52.082Z,288
2022-10-09T21:15:58.446Z,288
2022-10-09T21:18:05.637Z,288
2022-10-09T21:20:12.025Z,288
2022-10-09T21:22:18.297Z,288
2022-10-09T21:24:24.766Z,288
2022-10-09T21:26:32.218Z,288
2022-10-09T21:28:38.537Z,288
2022-10-09T21:30:45.920Z,288
2022-10-09T21:32:53.294Z,288
2022-10-09T21:34:59.151Z,288
2022-10-09T21:37:38.931Z,289
2022-10-09T21:39:44.413Z,289
2022-10-09T21:41:50.110Z,289
2022-10-09T21:43:55.560Z,289
2022-10-09T21:46:02.651Z,289
2022-10-09T21:48:08.105Z,288
2022-10-09T21:50:13.488Z,288
2022-10-09T21:52:19.001Z,288
2022-10-09T21:54:24.043Z,289
2022-10-09T21:56:29.829Z,288
2022-10-09T21:58:35.035Z,282
2022-10-09T22:00:44.050Z,281
2022-10-09T22:02:51.001Z,280
2022-10-09T22:04:57.050Z,280
2022-10-09T22:07:02.817Z,282
2022-10-09T22:09:09.215Z,276
2022-10-09T22:11:15.175Z,281
2022-10-09T22:13:20.557Z,281
2022-10-09T22:15:25.757Z,279
2022-10-09T22:17:31.016Z,281
2022-10-09T22:19:36.122Z,284
2022-10-09T22:21:44.202Z,284
2022-10-09T22:23:49.233Z,284
2022-10-09T22:25:55.411Z,284
2022-10-09T22:28:00.395Z,283
2022-10-09T22:30:05.922Z,277
2022-10-09T22:32:12.698Z,277
2022-10-09T22:34:18.569Z,278
2022-10-09T22:36:24.196Z,276
2022-10-09T22:38:29.699Z,281
2022-10-09T22:40:35.060Z,278
2022-10-09T22:42:40.336Z,279
2022-10-09T22:44:45.434Z,279
2022-10-09T22:46:50.368Z,279
2022-10-09T22:48:55.390Z,279
2022-10-09T22:51:00.552Z,279
2022-10-09T22:53:05.843Z,279
2022-10-09T22:55:11.180Z,279
2022-10-09T22:57:16.272Z,279
2022-10-09T22:59:21.556Z,280
2022-10-09T23:01:26.844Z,278
2022-10-09T23:03:32.184Z,274
2022-10-09T23:05:37.481Z,276
2022-10-09T23:07:43.016Z,276
2022-10-09T23:09:48.040Z,276
2022-10-09T23:11:55.006Z,276
2022-10-09T23:14:03.826Z,276
2022-10-09T23:16:09.748Z,276
2022-10-09T23:18:15.013Z,276
2022-10-09T23:20:20.291Z,276
2022-10-09T23:22:28.673Z,276
2022-10-09T23:24:34.183Z,276
2022-10-09T23:26:42.758Z,276
2022-10-09T23:28:47.652Z,276
2022-10-09T23:30:53.875Z,276
2022-10-09T23:32:58.997Z,276
2022-10-09T23:35:07.774Z,276
2022-10-09T23:37:13.354Z,278
2022-10-09T23:39:18.614Z,277
2022-10-09T23:41:24.605Z,273
2022-10-09T23:43:29.813Z,274
2022-10-09T23:45:34.953Z,273
2022-10-09T23:47:40.150Z,276
2022-10-09T23:49:45.162Z,265
2022-10-09T23:51:50.601Z,290
2022-10-09T23:53:55.973Z,290
2022-10-09T23:56:01.125Z,290
2022-10-09T23:58:06.135Z,290
